International Virtual Aviation Organisation

Russian Federation and Kazakhstan MCD

 

Карточка аэропорта URMM

Внимание!
Информация на этой странице в стадии наполнения.
Если вы не увидели какой-то информации, или заметили неточность - пожалуйста сообщите нам!
Спасибо!
Команда RU-STAFF
Название аэропортаМинеральные Воды
Название аэропорта (англ.)Mineralnyye Vody
Превышение1047 ft. (319.1 m.)
Координаты44°13.608', 43°4.9799999999999'
Высота перехода900m
Эшелон переходаQFE>=704mm:FL060; QFE<704mm:FL070
Коды ответчика1050-1057
Зона ОрВДРостов-на-Дону РПИ (URRV)
Данные METARURMM 041130Z 09007MPS 1100 0750NW R12/0750D -DZ FG VV002 01/01 Q1028 R12/190060 TEMPO 0300 FG RMK QBB070 MT OBSC QFE742/0990
Проноз погоды (TAF)URMM 041133Z 0412/0512 09006G13MPS 1200 BR OVC003 TXM00/0412Z TNM01/0503Z TEMPO 0412/0512 0500 FZDZ FZFG OVC002
NOTAMshow/hide NOTAM
AWOS   TABLE

Информация о ВПП

ВПП Длина ВПП (м.) Покрытие Курс ВПП Частота ILS
123900Бетон115111.7
303900Бетон295109.3

Диспетчерские позиции

Позывной Наименование органа УВД Частота
URMM_R_APPМинводы-Круг120.7
URMM_APPМинводы-Подход119.3
URMM_GNDМинводы-Руление121.9
URMM_TWRМинводы-Старт128.0



Спутниковое изображение